sensor_id;sensor_type;location;lat;lon;timestamp;temperature;humidity
17944;DHT22;9097;47.028;15.444;2023-01-15T07:26:43;2.90;99.90
17944;DHT22;9097;47.028;15.444;2023-01-15T07:29:46;3.00;99.90
17944;DHT22;9097;47.028;15.444;2023-01-15T07:32:49;3.10;99.90
17944;DHT22;9097;47.028;15.444;2023-01-15T07:35:53;3.20;99.90
17944;DHT22;9097;47.028;15.444;2023-01-15T07:38:56;3.40;99.90
17944;DHT22;9097;47.028;15.444;2023-01-15T07:41:59;3.60;99.90
17944;DHT22;9097;47.028;15.444;2023-01-15T07:45:19;3.80;99.90
17944;DHT22;9097;47.028;15.444;2023-01-15T07:48:39;4.00;99.90
17944;DHT22;9097;47.028;15.444;2023-01-15T07:52:00;4.10;99.90
17944;DHT22;9097;47.028;15.444;2023-01-15T07:55:10;4.20;99.90
17944;DHT22;9097;47.028;15.444;2023-01-15T07:58:13;4.30;99.90
17944;DHT22;9097;47.028;15.444;2023-01-15T08:01:16;4.40;99.90
17944;DHT22;9097;47.028;15.444;2023-01-15T08:04:19;4.50;99.90
17944;DHT22;9097;47.028;15.444;2023-01-15T08:07:23;4.60;99.90
17944;DHT22;9097;47.028;15.444;2023-01-15T08:10:26;4.80;99.90
17944;DHT22;9097;47.028;15.444;2023-01-15T08:13:29;4.80;99.90
17944;DHT22;9097;47.028;15.444;2023-01-15T08:16:48;4.90;99.90
17944;DHT22;9097;47.028;15.444;2023-01-15T08:19:51;4.90;99.90
17944;DHT22;9097;47.028;15.444;2023-01-15T08:22:55;4.90;99.90
17944;DHT22;9097;47.028;15.444;2023-01-15T08:25:58;4.90;99.90
17944;DHT22;9097;47.028;15.444;2023-01-15T08:29:01;4.90;99.90
17944;DHT22;9097;47.028;15.444;2023-01-15T08:32:04;5.00;99.90
17944;DHT22;9097;47.028;15.444;2023-01-15T08:38:11;5.00;99.90
17944;DHT22;9097;47.028;15.444;2023-01-15T08:41:14;5.30;99.90
17944;DHT22;9097;47.028;15.444;2023-01-15T08:47:21;5.60;99.90
17944;DHT22;9097;47.028;15.444;2023-01-15T08:50:24;5.60;99.90
17944;DHT22;9097;47.028;15.444;2023-01-15T08:56:30;5.90;99.90
17944;DHT22;9097;47.028;15.444;2023-01-15T09:02:36;6.40;99.90
17944;DHT22;9097;47.028;15.444;2023-01-15T09:33:13;6.90;99.90
17944;DHT22;9097;47.028;15.444;2023-01-15T09:36:19;7.50;99.90
17944;DHT22;9097;47.028;15.444;2023-01-15T10:04:40;12.10;99.90
17944;DHT22;9097;47.028;15.444;2023-01-15T16:14:38;7.40;99.90
17944;DHT22;9097;47.028;15.444;2023-01-15T16:17:42;6.30;99.90
17944;DHT22;9097;47.028;15.444;2023-01-15T16:20:45;6.20;99.90
17944;DHT22;9097;47.028;15.444;2023-01-15T16:23:58;6.20;99.90
17944;DHT22;9097;47.028;15.444;2023-01-15T16:27:04;6.10;99.90
17944;DHT22;9097;47.028;15.444;2023-01-15T16:30:15;6.00;99.90
17944;DHT22;9097;47.028;15.444;2023-01-15T16:33:19;6.10;99.90
17944;DHT22;9097;47.028;15.444;2023-01-15T16:36:23;6.10;99.90
17944;DHT22;9097;47.028;15.444;2023-01-15T16:39:31;6.10;99.90
17944;DHT22;9097;47.028;15.444;2023-01-15T16:42:39;6.10;99.90
17944;DHT22;9097;47.028;15.444;2023-01-15T16:46:05;6.20;99.90
17944;DHT22;9097;47.028;15.444;2023-01-15T16:49:25;6.20;99.90
17944;DHT22;9097;47.028;15.444;2023-01-15T16:52:49;6.20;99.90
17944;DHT22;9097;47.028;15.444;2023-01-15T16:55:53;6.20;99.90
17944;DHT22;9097;47.028;15.444;2023-01-15T16:58:57;6.20;99.90
17944;DHT22;9097;47.028;15.444;2023-01-15T17:02:05;6.10;99.90
17944;DHT22;9097;47.028;15.444;2023-01-15T17:05:23;6.00;99.90
17944;DHT22;9097;47.028;15.444;2023-01-15T17:08:31;6.00;99.90
17944;DHT22;9097;47.028;15.444;2023-01-15T17:11:36;6.00;99.90
17944;DHT22;9097;47.028;15.444;2023-01-15T17:14:39;6.10;99.90
17944;DHT22;9097;47.028;15.444;2023-01-15T17:17:44;6.20;99.90
17944;DHT22;9097;47.028;15.444;2023-01-15T17:20:47;6.20;99.90
17944;DHT22;9097;47.028;15.444;2023-01-15T17:23:49;6.30;99.90
17944;DHT22;9097;47.028;15.444;2023-01-15T17:26:52;6.40;99.90
17944;DHT22;9097;47.028;15.444;2023-01-15T17:29:55;6.50;99.90
17944;DHT22;9097;47.028;15.444;2023-01-15T17:32:59;6.50;99.90
17944;DHT22;9097;47.028;15.444;2023-01-15T17:36:02;6.50;99.90
17944;DHT22;9097;47.028;15.444;2023-01-15T17:39:05;6.40;99.90
17944;DHT22;9097;47.028;15.444;2023-01-15T17:42:14;6.40;99.90
17944;DHT22;9097;47.028;15.444;2023-01-15T17:45:19;6.40;99.90
17944;DHT22;9097;47.028;15.444;2023-01-15T17:48:23;6.50;99.90
17944;DHT22;9097;47.028;15.444;2023-01-15T17:51:26;6.60;99.90
17944;DHT22;9097;47.028;15.444;2023-01-15T17:54:30;6.60;99.90
17944;DHT22;9097;47.028;15.444;2023-01-15T17:58:02;6.70;99.90
17944;DHT22;9097;47.028;15.444;2023-01-15T18:01:24;6.80;99.90
17944;DHT22;9097;47.028;15.444;2023-01-15T18:04:49;6.80;99.90
17944;DHT22;9097;47.028;15.444;2023-01-15T18:08:10;6.90;99.90
17944;DHT22;9097;47.028;15.444;2023-01-15T18:11:14;6.80;99.90
17944;DHT22;9097;47.028;15.444;2023-01-15T18:14:17;6.70;99.90
17944;DHT22;9097;47.028;15.444;2023-01-15T18:17:21;6.60;99.90
17944;DHT22;9097;47.028;15.444;2023-01-15T18:20:27;6.60;99.90
17944;DHT22;9097;47.028;15.444;2023-01-15T18:23:33;6.60;99.90
17944;DHT22;9097;47.028;15.444;2023-01-15T18:26:41;6.50;99.90
17944;DHT22;9097;47.028;15.444;2023-01-15T18:29:53;6.60;99.90
17944;DHT22;9097;47.028;15.444;2023-01-15T18:32:59;6.60;99.90
17944;DHT22;9097;47.028;15.444;2023-01-15T18:36:04;6.60;99.90
17944;DHT22;9097;47.028;15.444;2023-01-15T18:39:07;6.70;99.90
17944;DHT22;9097;47.028;15.444;2023-01-15T18:42:12;6.60;99.90
17944;DHT22;9097;47.028;15.444;2023-01-15T18:45:32;6.60;99.90
17944;DHT22;9097;47.028;15.444;2023-01-15T18:49:29;6.60;99.90
17944;DHT22;9097;47.028;15.444;2023-01-15T18:52:34;6.50;99.90
17944;DHT22;9097;47.028;15.444;2023-01-15T18:56:00;6.60;99.90
17944;DHT22;9097;47.028;15.444;2023-01-15T18:59:05;6.60;99.90
17944;DHT22;9097;47.028;15.444;2023-01-15T19:02:08;6.60;99.90
17944;DHT22;9097;47.028;15.444;2023-01-15T19:05:12;6.70;99.90
17944;DHT22;9097;47.028;15.444;2023-01-15T19:08:18;6.70;99.90
17944;DHT22;9097;47.028;15.444;2023-01-15T19:11:21;6.60;99.90
17944;DHT22;9097;47.028;15.444;2023-01-15T19:14:24;6.60;99.90
17944;DHT22;9097;47.028;15.444;2023-01-15T19:17:46;6.60;99.90
17944;DHT22;9097;47.028;15.444;2023-01-15T19:21:07;6.60;99.90
17944;DHT22;9097;47.028;15.444;2023-01-15T19:24:14;6.70;99.90
17944;DHT22;9097;47.028;15.444;2023-01-15T19:27:16;6.70;99.90
17944;DHT22;9097;47.028;15.444;2023-01-15T19:30:19;6.70;99.90
17944;DHT22;9097;47.028;15.444;2023-01-15T19:33:22;6.70;99.90
17944;DHT22;9097;47.028;15.444;2023-01-15T19:36:24;6.70;99.90
17944;DHT22;9097;47.028;15.444;2023-01-15T19:39:29;6.70;99.90
17944;DHT22;9097;47.028;15.444;2023-01-15T19:42:38;6.60;99.90
17944;DHT22;9097;47.028;15.444;2023-01-15T19:45:59;6.70;99.90
17944;DHT22;9097;47.028;15.444;2023-01-15T19:49:25;6.60;99.90
17944;DHT22;9097;47.028;15.444;2023-01-15T19:52:51;6.70;99.90
17944;DHT22;9097;47.028;15.444;2023-01-15T19:55:58;6.60;99.90
17944;DHT22;9097;47.028;15.444;2023-01-15T19:59:02;6.60;99.90
17944;DHT22;9097;47.028;15.444;2023-01-15T20:02:26;6.60;99.90
17944;DHT22;9097;47.028;15.444;2023-01-15T20:06:21;6.70;99.90
17944;DHT22;9097;47.028;15.444;2023-01-15T20:09:34;6.70;99.90
17944;DHT22;9097;47.028;15.444;2023-01-15T20:12:39;6.70;99.90
17944;DHT22;9097;47.028;15.444;2023-01-15T20:16:06;6.60;99.90
17944;DHT22;9097;47.028;15.444;2023-01-15T20:19:08;6.60;99.90
17944;DHT22;9097;47.028;15.444;2023-01-15T20:22:12;6.60;99.90
17944;DHT22;9097;47.028;15.444;2023-01-15T20:25:17;6.60;99.90
17944;DHT22;9097;47.028;15.444;2023-01-15T20:28:24;6.60;99.90
17944;DHT22;9097;47.028;15.444;2023-01-15T20:31:27;6.60;99.90
17944;DHT22;9097;47.028;15.444;2023-01-15T20:34:32;6.70;99.90
17944;DHT22;9097;47.028;15.444;2023-01-15T20:37:39;6.60;99.90
17944;DHT22;9097;47.028;15.444;2023-01-15T20:40:48;6.60;99.90
17944;DHT22;9097;47.028;15.444;2023-01-15T20:43:53;6.60;99.90
17944;DHT22;9097;47.028;15.444;2023-01-15T20:47:13;6.60;99.90
17944;DHT22;9097;47.028;15.444;2023-01-15T20:50:33;6.70;99.90
17944;DHT22;9097;47.028;15.444;2023-01-15T20:53:36;6.60;99.90
17944;DHT22;9097;47.028;15.444;2023-01-15T20:56:39;6.60;99.90
17944;DHT22;9097;47.028;15.444;2023-01-15T20:59:43;6.60;99.90
17944;DHT22;9097;47.028;15.444;2023-01-15T21:02:46;6.60;99.90
17944;DHT22;9097;47.028;15.444;2023-01-15T21:05:48;6.50;99.90
17944;DHT22;9097;47.028;15.444;2023-01-15T21:08:51;6.60;99.90
17944;DHT22;9097;47.028;15.444;2023-01-15T21:11:55;6.60;99.90
17944;DHT22;9097;47.028;15.444;2023-01-15T21:14:59;6.60;99.90
17944;DHT22;9097;47.028;15.444;2023-01-15T21:18:01;6.60;99.90
17944;DHT22;9097;47.028;15.444;2023-01-15T21:21:07;6.70;99.90
17944;DHT22;9097;47.028;15.444;2023-01-15T21:24:10;6.70;99.90
17944;DHT22;9097;47.028;15.444;2023-01-15T21:27:13;6.60;99.90
17944;DHT22;9097;47.028;15.444;2023-01-15T21:30:17;6.70;99.90
17944;DHT22;9097;47.028;15.444;2023-01-15T21:33:20;6.60;99.90
17944;DHT22;9097;47.028;15.444;2023-01-15T21:36:23;6.70;99.90
17944;DHT22;9097;47.028;15.444;2023-01-15T21:39:26;6.70;99.90
17944;DHT22;9097;47.028;15.444;2023-01-15T21:42:28;6.70;99.90
17944;DHT22;9097;47.028;15.444;2023-01-15T21:46:02;6.70;99.90
17944;DHT22;9097;47.028;15.444;2023-01-15T21:49:05;6.60;99.90
17944;DHT22;9097;47.028;15.444;2023-01-15T21:52:12;6.70;99.90
17944;DHT22;9097;47.028;15.444;2023-01-15T21:55:15;6.80;99.90
17944;DHT22;9097;47.028;15.444;2023-01-15T21:58:17;6.80;99.90
17944;DHT22;9097;47.028;15.444;2023-01-15T22:01:22;6.70;99.90
17944;DHT22;9097;47.028;15.444;2023-01-15T22:04:26;6.70;99.90
17944;DHT22;9097;47.028;15.444;2023-01-15T22:07:29;6.80;99.90
17944;DHT22;9097;47.028;15.444;2023-01-15T22:10:32;6.80;99.90
17944;DHT22;9097;47.028;15.444;2023-01-15T22:13:35;6.80;99.90
17944;DHT22;9097;47.028;15.444;2023-01-15T22:16:40;6.80;99.90
17944;DHT22;9097;47.028;15.444;2023-01-15T22:19:43;6.80;99.90
17944;DHT22;9097;47.028;15.444;2023-01-15T22:22:49;6.90;99.90
17944;DHT22;9097;47.028;15.444;2023-01-15T22:25:55;6.90;99.90
17944;DHT22;9097;47.028;15.444;2023-01-15T22:29:04;6.90;99.90
17944;DHT22;9097;47.028;15.444;2023-01-15T22:32:19;6.90;99.90
17944;DHT22;9097;47.028;15.444;2023-01-15T22:35:25;6.80;99.90
17944;DHT22;9097;47.028;15.444;2023-01-15T22:38:28;6.70;99.90
17944;DHT22;9097;47.028;15.444;2023-01-15T22:41:32;6.80;99.90
17944;DHT22;9097;47.028;15.444;2023-01-15T22:44:53;6.80;99.90
17944;DHT22;9097;47.028;15.444;2023-01-15T22:47:58;6.90;99.90
17944;DHT22;9097;47.028;15.444;2023-01-15T22:51:00;6.90;99.90
17944;DHT22;9097;47.028;15.444;2023-01-15T22:54:03;6.90;99.90
17944;DHT22;9097;47.028;15.444;2023-01-15T22:57:06;7.00;99.90
17944;DHT22;9097;47.028;15.444;2023-01-15T23:00:09;7.00;99.90
17944;DHT22;9097;47.028;15.444;2023-01-15T23:03:13;7.00;99.90
17944;DHT22;9097;47.028;15.444;2023-01-15T23:06:17;7.00;99.90
17944;DHT22;9097;47.028;15.444;2023-01-15T23:09:21;7.00;99.90
17944;DHT22;9097;47.028;15.444;2023-01-15T23:12:24;6.90;99.90
17944;DHT22;9097;47.028;15.444;2023-01-15T23:15:27;6.90;99.90
17944;DHT22;9097;47.028;15.444;2023-01-15T23:18:31;6.90;99.90
17944;DHT22;9097;47.028;15.444;2023-01-15T23:21:34;6.90;99.90
17944;DHT22;9097;47.028;15.444;2023-01-15T23:24:37;6.90;99.90
17944;DHT22;9097;47.028;15.444;2023-01-15T23:27:39;6.90;99.90
17944;DHT22;9097;47.028;15.444;2023-01-15T23:30:46;6.90;99.90
17944;DHT22;9097;47.028;15.444;2023-01-15T23:33:53;6.90;99.90
17944;DHT22;9097;47.028;15.444;2023-01-15T23:36:55;6.90;99.90
17944;DHT22;9097;47.028;15.444;2023-01-15T23:39:58;6.90;99.90
17944;DHT22;9097;47.028;15.444;2023-01-15T23:43:02;6.80;99.90
17944;DHT22;9097;47.028;15.444;2023-01-15T23:46:22;6.80;99.90
17944;DHT22;9097;47.028;15.444;2023-01-15T23:49:36;6.80;99.90
17944;DHT22;9097;47.028;15.444;2023-01-15T23:52:39;6.80;99.90
17944;DHT22;9097;47.028;15.444;2023-01-15T23:55:42;6.80;99.90
17944;DHT22;9097;47.028;15.444;2023-01-15T23:58:44;6.80;99.90
